createdAt,value
2022-10-01T00:01:10.529Z,26.80
2022-10-01T00:03:38.351Z,28.60
2022-10-01T00:06:09.034Z,22.10
2022-10-01T00:08:37.154Z,26.63
2022-10-01T00:11:08.256Z,22.47
2022-10-01T00:13:36.486Z,22.00
2022-10-01T00:16:05.593Z,23.83
2022-10-01T00:18:35.678Z,21.90
2022-10-01T00:21:06.236Z,23.87
2022-10-01T00:23:33.735Z,24.13
2022-10-01T00:26:09.126Z,22.97
2022-10-01T00:28:36.836Z,23.17
2022-10-01T00:31:04.351Z,26.40
2022-10-01T00:33:34.339Z,25.00
2022-10-01T00:36:02.130Z,23.10
2022-10-01T00:38:29.889Z,24.63
2022-10-01T00:40:58.742Z,27.10
2022-10-01T00:43:27.492Z,24.63
2022-10-01T00:45:56.725Z,29.00
2022-10-01T00:48:25.995Z,23.90
2022-10-01T00:50:54.941Z,28.57
2022-10-01T00:53:22.799Z,26.93
2022-10-01T00:55:55.283Z,27.00
2022-10-01T00:58:23.401Z,24.90
2022-10-01T01:00:51.568Z,26.20
2022-10-01T01:03:19.937Z,24.20
2022-10-01T01:05:47.826Z,23.37
2022-10-01T01:08:17.250Z,31.10
2022-10-01T01:10:50.261Z,24.97
2022-10-01T01:13:22.068Z,25.17
2022-10-01T01:15:54.957Z,25.63
2022-10-01T01:18:24.976Z,31.40
2022-10-01T01:21:05.298Z,28.30
2022-10-01T01:23:41.783Z,24.37
2022-10-01T01:26:16.401Z,26.97
2022-10-01T01:28:48.331Z,27.40
2022-10-01T01:31:17.792Z,29.10
2022-10-01T01:33:47.301Z,28.57
2022-10-01T01:36:17.114Z,27.83
2022-10-01T01:38:47.507Z,30.03
2022-10-01T01:41:16.277Z,28.77
2022-10-01T01:43:46.715Z,22.80
2022-10-01T01:46:17.636Z,24.10
2022-10-01T01:48:47.597Z,24.70
2022-10-01T01:51:17.814Z,32.07
2022-10-01T01:53:45.736Z,26.40
2022-10-01T01:56:13.658Z,28.20
2022-10-01T01:58:41.334Z,31.70
2022-10-01T02:01:23.833Z,25.73
2022-10-01T02:03:52.845Z,26.37
2022-10-01T02:06:26.406Z,37.33
2022-10-01T02:08:58.047Z,31.37
2022-10-01T02:11:28.433Z,30.03
2022-10-01T02:14:01.923Z,27.37
2022-10-01T02:16:32.357Z,24.53
2022-10-01T02:19:02.446Z,30.43
2022-10-01T02:21:51.491Z,25.43
2022-10-01T02:24:22.902Z,30.80
2022-10-01T02:26:51.510Z,31.57
2022-10-01T02:29:20.722Z,25.70
2022-10-01T02:31:49.053Z,28.63
2022-10-01T02:34:20.368Z,26.53
2022-10-01T02:36:49.158Z,30.43
2022-10-01T02:39:17.474Z,27.60
2022-10-01T02:41:46.690Z,27.83
2022-10-01T02:44:16.366Z,36.80
2022-10-01T02:46:46.645Z,28.30
2022-10-01T02:49:14.946Z,26.17
2022-10-01T02:51:47.455Z,32.20
2022-10-01T02:54:17.062Z,29.10
2022-10-01T02:57:02.602Z,29.70
2022-10-01T02:59:30.161Z,31.03
2022-10-01T03:01:57.733Z,29.63
2022-10-01T03:04:26.017Z,35.00
2022-10-01T03:06:54.816Z,26.97
2022-10-01T03:09:22.446Z,27.80
2022-10-01T03:11:50.170Z,26.97
2022-10-01T03:14:17.846Z,29.83
2022-10-01T03:16:45.309Z,28.07
2022-10-01T03:19:12.989Z,27.17
2022-10-01T03:21:40.451Z,25.33
2022-10-01T03:24:09.676Z,35.70
2022-10-01T03:26:37.670Z,28.83
2022-10-01T03:29:06.183Z,24.43
2022-10-01T03:31:34.218Z,26.10
2022-10-01T03:34:02.854Z,26.67
2022-10-01T03:36:30.508Z,28.87
2022-10-01T03:38:58.317Z,25.80
2022-10-01T03:41:27.475Z,25.00
2022-10-01T03:43:59.641Z,24.00
2022-10-01T03:46:28.268Z,26.07
2022-10-01T03:48:56.224Z,23.67
2022-10-01T03:51:24.225Z,26.80
2022-10-01T03:53:51.899Z,25.50
2022-10-01T03:56:19.459Z,24.40
2022-10-01T03:58:48.312Z,23.60
2022-10-01T04:01:16.349Z,26.97
2022-10-01T04:03:44.066Z,23.37
2022-10-01T04:06:11.908Z,24.53
2022-10-01T04:08:39.575Z,25.00
2022-10-01T04:11:07.269Z,30.40
2022-10-01T04:13:35.237Z,23.53
2022-10-01T04:16:04.933Z,24.70
2022-10-01T04:18:32.541Z,21.40
2022-10-01T04:21:00.407Z,25.47
2022-10-01T04:23:28.633Z,23.60
2022-10-01T04:25:58.993Z,26.47
2022-10-01T04:28:26.817Z,22.63
2022-10-01T04:31:14.748Z,23.17
2022-10-01T04:33:43.680Z,21.73
2022-10-01T04:36:11.179Z,22.13
2022-10-01T04:38:39.039Z,21.50
2022-10-01T04:41:06.693Z,24.60
2022-10-01T04:43:34.312Z,24.53
2022-10-01T04:46:02.075Z,23.20
2022-10-01T04:48:29.656Z,19.73
2022-10-01T04:50:58.439Z,20.90
2022-10-01T04:53:26.651Z,24.17
2022-10-01T04:55:54.110Z,34.33
2022-10-01T04:58:21.920Z,20.27
2022-10-01T05:00:49.735Z,22.20
2022-10-01T05:03:17.351Z,21.20
2022-10-01T05:05:44.938Z,22.40
2022-10-01T05:08:14.474Z,20.73
2022-10-01T05:10:42.035Z,18.97
2022-10-01T05:13:10.991Z,21.70
2022-10-01T05:15:38.841Z,26.03
2022-10-01T05:18:06.355Z,21.70
2022-10-01T05:20:34.646Z,22.07
2022-10-01T05:23:03.084Z,22.37
2022-10-01T05:25:32.306Z,19.17
2022-10-01T05:28:05.736Z,19.37
2022-10-01T05:30:34.116Z,19.10
2022-10-01T05:33:02.639Z,19.40
2022-10-01T05:35:30.569Z,16.87
2022-10-01T05:37:59.109Z,17.70
2022-10-01T05:40:27.345Z,18.53
2022-10-01T05:42:58.544Z,19.50
2022-10-01T05:45:27.898Z,17.07
2022-10-01T05:47:59.143Z,18.70
2022-10-01T05:50:27.804Z,17.17
2022-10-01T05:52:55.858Z,17.40
2022-10-01T05:55:24.075Z,17.33
2022-10-01T05:57:57.238Z,16.53
2022-10-01T06:00:28.011Z,16.30
2022-10-01T06:02:56.135Z,16.17
2022-10-01T06:05:24.090Z,20.47
2022-10-01T06:07:51.802Z,14.67
2022-10-01T06:10:19.488Z,18.40
2022-10-01T06:12:48.832Z,14.63
2022-10-01T06:15:18.142Z,13.20
2022-10-01T06:17:46.896Z,14.50
2022-10-01T06:20:15.391Z,14.20
2022-10-01T06:22:43.554Z,15.33
2022-10-01T06:25:12.232Z,13.10
2022-10-01T06:27:39.973Z,20.57
2022-10-01T06:30:08.758Z,19.70
2022-10-01T06:32:37.775Z,21.60
2022-10-01T06:35:05.435Z,16.57
2022-10-01T06:37:33.112Z,15.87
2022-10-01T06:40:00.701Z,14.57
2022-10-01T06:42:28.444Z,14.00
2022-10-01T06:44:56.095Z,12.50
2022-10-01T06:47:23.578Z,13.83
2022-10-01T06:49:52.416Z,13.97
2022-10-01T06:52:38.232Z,15.80
2022-10-01T06:55:06.421Z,14.20
2022-10-01T06:57:34.280Z,16.70
2022-10-01T07:00:02.372Z,18.60
2022-10-01T07:02:30.183Z,12.90
2022-10-01T07:04:59.644Z,15.47
2022-10-01T07:07:30.110Z,15.43
2022-10-01T07:09:58.394Z,14.97
2022-10-01T07:12:26.617Z,16.63
2022-10-01T07:14:54.519Z,15.40
2022-10-01T07:17:22.148Z,20.13
2022-10-01T07:19:49.802Z,33.33
2022-10-01T07:22:19.357Z,17.53
2022-10-01T07:24:47.040Z,15.53
2022-10-01T07:27:14.563Z,18.00
2022-10-01T07:29:42.429Z,18.37
2022-10-01T07:32:10.440Z,24.20
2022-10-01T07:34:40.166Z,13.17
2022-10-01T07:37:08.382Z,16.27
2022-10-01T07:39:37.764Z,15.40
2022-10-01T07:42:06.059Z,12.57
2022-10-01T07:44:33.811Z,13.77
2022-10-01T07:47:01.509Z,13.37
2022-10-01T07:49:29.334Z,14.20
2022-10-01T07:51:58.946Z,17.20
2022-10-01T07:54:26.940Z,15.27
2022-10-01T07:56:56.955Z,12.00
2022-10-01T07:59:24.498Z,13.33
2022-10-01T08:01:52.521Z,15.40
2022-10-01T08:04:38.170Z,14.20
2022-10-01T08:07:06.277Z,14.60
2022-10-01T08:09:33.761Z,16.70
2022-10-01T08:12:04.553Z,17.67
2022-10-01T08:14:32.078Z,13.63
2022-10-01T08:16:59.945Z,16.90
2022-10-01T08:19:27.750Z,13.80
2022-10-01T08:21:55.286Z,12.57
2022-10-01T08:24:23.426Z,14.17
2022-10-01T08:26:56.052Z,12.13
2022-10-01T08:29:24.976Z,13.90
2022-10-01T08:31:52.487Z,13.17
2022-10-01T08:34:20.369Z,14.63
2022-10-01T08:36:50.962Z,12.40
2022-10-01T08:39:18.735Z,11.47
2022-10-01T08:41:51.183Z,15.40
2022-10-01T08:44:20.181Z,13.80
2022-10-01T08:46:50.434Z,13.73
2022-10-01T08:49:21.440Z,11.57
2022-10-01T08:51:50.989Z,15.63
2022-10-01T08:54:29.573Z,20.97
2022-10-01T08:56:58.755Z,13.83
2022-10-01T08:59:31.253Z,17.07
2022-10-01T09:02:00.196Z,12.27
2022-10-01T09:04:28.135Z,11.27
2022-10-01T09:06:59.305Z,15.57
2022-10-01T09:09:33.327Z,11.57
2022-10-01T09:12:06.558Z,13.13
2022-10-01T09:14:39.429Z,11.90
2022-10-01T09:17:13.811Z,12.97
2022-10-01T09:19:54.875Z,11.70
2022-10-01T09:22:28.591Z,11.53
2022-10-01T09:24:59.413Z,11.20
2022-10-01T09:27:27.998Z,11.90
2022-10-01T09:29:57.394Z,9.50
2022-10-01T09:32:28.605Z,10.90
2022-10-01T09:35:04.278Z,14.00
2022-10-01T09:37:38.962Z,9.10
2022-10-01T09:40:14.785Z,8.63
2022-10-01T09:42:42.871Z,13.30
2022-10-01T09:45:12.459Z,8.73
2022-10-01T09:47:43.778Z,10.17
2022-10-01T09:50:14.678Z,8.00
2022-10-01T09:52:42.980Z,9.60
2022-10-01T09:55:18.459Z,8.53
2022-10-01T09:57:48.948Z,8.40
2022-10-01T10:00:19.073Z,6.57
2022-10-01T10:02:49.945Z,5.17
2022-10-01T10:05:19.041Z,9.63
2022-10-01T10:07:47.817Z,8.80
2022-10-01T10:10:24.800Z,10.27
2022-10-01T10:12:56.880Z,10.07
2022-10-01T10:15:26.501Z,12.03
2022-10-01T10:17:56.008Z,8.43
2022-10-01T10:20:30.963Z,9.03
2022-10-01T10:23:08.759Z,9.30
2022-10-01T10:25:36.704Z,9.40
2022-10-01T10:28:05.082Z,9.23
2022-10-01T10:30:33.121Z,17.80
2022-10-01T10:33:05.639Z,11.60
2022-10-01T10:35:33.504Z,13.90
2022-10-01T10:38:01.407Z,12.00
2022-10-01T10:40:31.928Z,17.03
2022-10-01T10:42:59.979Z,22.43
2022-10-01T10:45:31.855Z,13.73
2022-10-01T10:48:00.276Z,14.67
2022-10-01T10:50:31.035Z,14.83
2022-10-01T10:52:59.512Z,16.77
2022-10-01T10:55:28.264Z,14.90
2022-10-01T10:57:57.851Z,22.80
2022-10-01T11:00:27.061Z,18.77
2022-10-01T11:02:56.082Z,19.60
2022-10-01T11:05:24.579Z,18.50
2022-10-01T11:07:55.265Z,20.53
2022-10-01T11:10:29.951Z,21.73
2022-10-01T11:13:06.919Z,19.47
2022-10-01T11:15:45.616Z,20.10
2022-10-01T11:18:21.956Z,20.17
2022-10-01T11:20:54.346Z,17.97
2022-10-01T11:23:36.302Z,19.30
2022-10-01T11:26:11.296Z,20.10
2022-10-01T11:28:45.128Z,17.03
2022-10-01T11:31:16.923Z,17.70
2022-10-01T11:33:50.448Z,15.57
2022-10-01T11:36:25.009Z,19.20
2022-10-01T11:38:58.635Z,12.30
2022-10-01T11:41:30.357Z,15.30
2022-10-01T11:43:58.657Z,15.43
2022-10-01T11:46:29.881Z,11.90
2022-10-01T11:49:02.232Z,14.77
2022-10-01T11:51:32.015Z,13.13
2022-10-01T11:54:02.734Z,12.87
2022-10-01T11:57:00.347Z,15.00
2022-10-01T11:59:32.458Z,15.90
2022-10-01T12:02:04.750Z,15.63
2022-10-01T12:04:35.220Z,10.77
2022-10-01T12:07:05.959Z,13.53
2022-10-01T12:09:40.470Z,13.53
2022-10-01T12:12:09.510Z,12.60
2022-10-01T12:14:40.901Z,11.40
2022-10-01T12:17:13.091Z,11.50
2022-10-01T12:19:43.314Z,13.20
2022-10-01T12:22:12.248Z,10.90
2022-10-01T12:24:42.424Z,12.27
2022-10-01T12:27:21.205Z,9.60
2022-10-01T12:29:53.426Z,13.90
2022-10-01T12:32:26.739Z,30.73
2022-10-01T12:34:59.814Z,13.57
2022-10-01T12:37:33.499Z,11.70
2022-10-01T12:40:15.791Z,8.83
2022-10-01T12:43:04.227Z,13.40
2022-10-01T12:45:39.724Z,12.07
2022-10-01T12:48:11.871Z,11.50
2022-10-01T12:50:46.690Z,23.33
2022-10-01T12:53:23.270Z,9.67
2022-10-01T12:56:04.714Z,11.40
2022-10-01T12:58:49.201Z,13.57
2022-10-01T13:01:22.634Z,10.67
2022-10-01T13:04:03.525Z,16.97
2022-10-01T13:06:37.214Z,14.70
2022-10-01T13:09:10.461Z,12.20
2022-10-01T13:11:48.716Z,12.67
2022-10-01T13:14:18.156Z,10.83
2022-10-01T13:16:54.335Z,14.17
2022-10-01T13:19:25.109Z,11.67
2022-10-01T13:21:57.362Z,13.00
2022-10-01T13:24:29.381Z,14.97
2022-10-01T13:27:01.318Z,17.90
2022-10-01T13:29:34.094Z,11.07
2022-10-01T13:32:02.430Z,16.33
2022-10-01T13:34:35.933Z,29.97
2022-10-01T13:37:13.822Z,13.33
2022-10-01T13:39:42.428Z,11.90
2022-10-01T13:42:15.291Z,15.07
2022-10-01T13:44:43.472Z,12.70
2022-10-01T13:47:13.231Z,12.87
2022-10-01T13:49:42.383Z,11.67
2022-10-01T13:52:19.583Z,10.60
2022-10-01T13:54:48.618Z,12.33
2022-10-01T13:57:27.930Z,13.40
2022-10-01T13:59:59.348Z,10.73
2022-10-01T14:02:32.149Z,14.07
2022-10-01T14:05:06.469Z,7.97
2022-10-01T14:07:36.845Z,12.33
2022-10-01T14:10:04.893Z,10.37
2022-10-01T14:12:53.448Z,8.50
2022-10-01T14:15:52.217Z,8.93
2022-10-01T14:18:23.511Z,9.17
2022-10-01T14:20:53.786Z,8.23
2022-10-01T14:23:24.709Z,9.40
2022-10-01T14:25:55.172Z,11.33
2022-10-01T14:28:31.113Z,10.37
2022-10-01T14:31:02.946Z,7.93
2022-10-01T14:33:44.720Z,7.73
2022-10-01T14:36:16.489Z,7.60
2022-10-01T14:38:44.654Z,11.30
2022-10-01T14:41:17.797Z,7.17
2022-10-01T14:43:47.575Z,13.67
2022-10-01T14:46:16.480Z,6.17
2022-10-01T14:48:44.488Z,8.63
2022-10-01T14:51:24.635Z,7.57
2022-10-01T14:53:53.282Z,6.30
2022-10-01T14:56:21.187Z,9.77
2022-10-01T14:58:53.962Z,6.60
2022-10-01T15:01:22.405Z,6.07
2022-10-01T15:03:50.599Z,7.03
2022-10-01T15:06:19.298Z,6.70
2022-10-01T15:08:47.721Z,5.90
2022-10-01T15:11:17.156Z,6.03
2022-10-01T15:13:46.095Z,5.03
2022-10-01T15:16:15.793Z,4.73
2022-10-01T15:18:47.043Z,14.10
2022-10-01T15:21:17.235Z,5.70
2022-10-01T15:23:45.800Z,6.23
2022-10-01T15:26:14.886Z,7.67
2022-10-01T15:28:44.381Z,5.97
2022-10-01T15:31:12.396Z,8.40
2022-10-01T15:33:42.591Z,8.97
2022-10-01T15:36:14.523Z,7.93
2022-10-01T15:38:44.573Z,11.63
2022-10-01T15:41:30.936Z,14.03
2022-10-01T15:44:00.195Z,13.50
2022-10-01T15:46:33.209Z,8.93
2022-10-01T15:49:19.652Z,6.30
2022-10-01T15:52:10.162Z,6.07
2022-10-01T15:54:38.792Z,7.20
2022-10-01T15:57:06.679Z,4.93
2022-10-01T15:59:35.474Z,8.50
2022-10-01T16:02:08.013Z,7.50
2022-10-01T16:04:36.963Z,7.93
2022-10-01T16:07:04.651Z,9.00
2022-10-01T16:09:33.128Z,7.50
2022-10-01T16:12:03.175Z,7.70
2022-10-01T16:14:32.107Z,8.80
2022-10-01T16:17:17.675Z,9.17
2022-10-01T16:19:47.524Z,7.27
2022-10-01T16:22:16.039Z,8.40
2022-10-01T16:24:44.984Z,6.30
2022-10-01T16:27:18.078Z,4.97
2022-10-01T16:29:51.085Z,7.27
2022-10-01T16:32:18.685Z,6.83
2022-10-01T16:34:47.654Z,11.70
2022-10-01T16:37:15.290Z,8.73
2022-10-01T16:39:42.851Z,4.80
2022-10-01T16:42:23.784Z,9.00
2022-10-01T16:44:52.746Z,5.23
2022-10-01T16:47:20.254Z,6.20
2022-10-01T16:49:49.591Z,7.97
2022-10-01T16:52:17.760Z,7.17
2022-10-01T16:54:47.055Z,6.47
2022-10-01T16:57:15.230Z,7.17
2022-10-01T16:59:42.903Z,5.90
2022-10-01T17:02:11.942Z,7.73
2022-10-01T17:04:39.486Z,6.27
2022-10-01T17:07:09.783Z,6.53
2022-10-01T17:09:37.433Z,7.47
2022-10-01T17:12:04.948Z,6.60
2022-10-01T17:14:32.654Z,7.87
2022-10-01T17:17:00.199Z,7.70
2022-10-01T17:19:27.953Z,15.80
2022-10-01T17:21:56.010Z,9.10
2022-10-01T17:24:25.233Z,9.23
2022-10-01T17:26:54.030Z,9.17
2022-10-01T17:29:21.721Z,14.80
2022-10-01T17:31:53.067Z,8.47
2022-10-01T17:34:21.328Z,11.63
2022-10-01T17:36:48.866Z,10.63
2022-10-01T17:39:16.549Z,16.90
2022-10-01T17:41:45.420Z,8.43
2022-10-01T17:44:13.178Z,10.57
2022-10-01T17:46:40.780Z,8.97
2022-10-01T17:49:08.767Z,11.30
2022-10-01T17:51:36.914Z,10.77
2022-10-01T17:54:04.895Z,11.10
2022-10-01T17:56:33.035Z,8.20
2022-10-01T17:59:02.472Z,9.53
2022-10-01T18:01:30.189Z,10.13
2022-10-01T18:04:00.164Z,8.60
2022-10-01T18:06:28.183Z,7.70
2022-10-01T18:08:56.662Z,7.57
2022-10-01T18:11:25.218Z,14.13
2022-10-01T18:13:53.000Z,14.30
2022-10-01T18:16:22.215Z,10.50
2022-10-01T18:21:43.077Z,12.10
2022-10-01T18:24:10.788Z,12.30
2022-10-01T18:26:38.687Z,12.37
2022-10-01T18:29:06.502Z,11.47
2022-10-01T18:31:36.872Z,11.23
2022-10-01T18:34:06.907Z,4.57
2022-10-01T18:36:40.444Z,5.73
2022-10-01T18:39:11.761Z,6.23
2022-10-01T18:41:41.183Z,6.20
2022-10-01T18:44:10.637Z,13.17
2022-10-01T18:46:52.187Z,8.53
2022-10-01T18:49:28.016Z,10.40
2022-10-01T18:52:02.549Z,6.00
2022-10-01T18:54:53.441Z,9.33
2022-10-01T18:57:27.788Z,9.43
2022-10-01T19:00:02.579Z,6.77
2022-10-01T19:02:40.058Z,8.70
2022-10-01T19:05:26.705Z,10.73
2022-10-01T19:07:58.575Z,10.67
2022-10-01T19:10:31.505Z,7.10
2022-10-01T19:13:03.506Z,8.40
2022-10-01T19:15:37.542Z,8.13
2022-10-01T19:18:24.826Z,9.30
2022-10-01T19:20:59.363Z,15.00
2022-10-01T19:23:52.920Z,16.40
2022-10-01T19:26:23.563Z,9.63
2022-10-01T19:28:58.300Z,9.30
2022-10-01T19:31:30.224Z,15.20
2022-10-01T19:34:01.620Z,17.00
2022-10-01T19:36:34.510Z,10.80
2022-10-01T19:39:05.414Z,17.23
2022-10-01T19:41:38.304Z,13.17
2022-10-01T19:44:10.813Z,15.90
2022-10-01T19:46:39.734Z,22.43
2022-10-01T19:49:14.237Z,13.47
2022-10-01T19:51:45.211Z,40.57
2022-10-01T19:54:16.812Z,12.73
2022-10-01T19:56:45.357Z,11.33
2022-10-01T19:59:14.351Z,8.87
2022-10-01T20:01:47.890Z,10.10
2022-10-01T20:04:21.336Z,9.70
2022-10-01T20:06:52.293Z,11.23
2022-10-01T20:09:24.747Z,9.20
2022-10-01T20:11:56.376Z,7.83
2022-10-01T20:14:41.450Z,6.17
2022-10-01T20:17:15.236Z,10.17
2022-10-01T20:19:44.857Z,8.20
2022-10-01T20:22:19.996Z,9.83
2022-10-01T20:24:50.333Z,9.77
2022-10-01T20:27:22.136Z,7.10
2022-10-01T20:29:52.844Z,6.43
2022-10-01T20:32:23.603Z,8.90
2022-10-01T20:34:58.094Z,8.33
2022-10-01T20:37:38.858Z,10.17
2022-10-01T20:40:12.591Z,8.17
2022-10-01T20:42:41.970Z,10.27
2022-10-01T20:45:16.055Z,10.47
2022-10-01T20:47:49.695Z,8.90
2022-10-01T20:50:19.757Z,14.67
2022-10-01T20:52:53.359Z,10.80
2022-10-01T20:55:26.844Z,14.57
2022-10-01T20:57:56.480Z,25.17
2022-10-01T21:00:25.903Z,11.10
2022-10-01T21:02:57.391Z,9.37
2022-10-01T21:05:27.127Z,23.77
2022-10-01T21:07:59.023Z,13.00
2022-10-01T21:10:38.722Z,12.90
2022-10-01T21:13:08.740Z,8.03
2022-10-01T21:15:43.445Z,12.93
2022-10-01T21:18:17.820Z,19.50
2022-10-01T21:20:48.555Z,26.37
2022-10-01T21:23:26.407Z,15.60
2022-10-01T21:25:58.638Z,14.13
2022-10-01T21:28:34.384Z,15.73
2022-10-01T21:31:09.740Z,18.57
2022-10-01T21:33:39.984Z,13.70
2022-10-01T21:36:11.984Z,10.33
2022-10-01T21:38:45.401Z,13.70
2022-10-01T21:41:21.898Z,8.87
2022-10-01T21:44:11.009Z,13.57
2022-10-01T21:46:41.038Z,18.23
2022-10-01T21:49:10.392Z,8.33
2022-10-01T21:51:45.470Z,14.63
2022-10-01T21:54:21.947Z,11.60
2022-10-01T21:56:56.343Z,15.23
2022-10-01T21:59:32.724Z,11.53
2022-10-01T22:02:05.923Z,11.97
2022-10-01T22:04:38.410Z,11.60
2022-10-01T22:07:12.439Z,9.90
2022-10-01T22:09:43.558Z,15.27
2022-10-01T22:12:12.078Z,8.13
2022-10-01T22:14:40.656Z,10.30
2022-10-01T22:17:12.552Z,12.17
2022-10-01T22:19:42.246Z,11.23
2022-10-01T22:22:10.910Z,9.93
2022-10-01T22:24:43.575Z,15.23
2022-10-01T22:27:14.227Z,12.40
2022-10-01T22:29:47.901Z,11.57
2022-10-01T22:32:18.423Z,14.00
2022-10-01T22:34:49.823Z,14.10
2022-10-01T22:37:19.502Z,15.80
2022-10-01T22:39:49.987Z,18.70
2022-10-01T22:42:21.297Z,12.13
2022-10-01T22:44:49.723Z,9.73
2022-10-01T22:47:35.181Z,11.90
2022-10-01T22:50:07.848Z,12.23
2022-10-01T22:52:40.198Z,13.67
2022-10-01T22:55:16.039Z,13.23
2022-10-01T22:57:56.102Z,12.90
2022-10-01T23:00:24.125Z,8.70
2022-10-01T23:02:57.203Z,14.97
2022-10-01T23:05:34.555Z,14.80
2022-10-01T23:08:04.581Z,11.43
2022-10-01T23:10:35.900Z,11.87
2022-10-01T23:13:12.016Z,12.67
2022-10-01T23:15:43.858Z,14.67
2022-10-01T23:18:19.299Z,15.87
2022-10-01T23:20:54.157Z,17.73
2022-10-01T23:23:26.816Z,16.03
2022-10-01T23:26:03.268Z,12.50
2022-10-01T23:28:39.194Z,17.87
2022-10-01T23:31:09.426Z,12.77
2022-10-01T23:33:44.552Z,13.03
2022-10-01T23:36:18.977Z,7.87
2022-10-01T23:38:54.803Z,13.77
2022-10-01T23:41:24.641Z,11.73
2022-10-01T23:43:54.534Z,19.63
2022-10-01T23:46:23.516Z,12.83
2022-10-01T23:48:54.427Z,21.07
2022-10-01T23:51:23.855Z,16.77
2022-10-01T23:53:54.390Z,13.20
2022-10-01T23:56:41.161Z,14.00
2022-10-01T23:59:13.960Z,8.77
